Time;durP1;ratioP1;P1;durP2;ratioP2;P2;SDS_P1;SDS_P2;PMS_P1;PMS_P2;Temp;Humidity;BMP_temperature;BMP_pressure;BME280_temperature;BME280_humidity;BME280_pressure;Samples;Min_cycle;Max_cycle;Signal;HPM_P1;HPM_P2
2023/12/11 00:00:43;;;;;;;20.58;13.88;;;128.40;2252.80;;;;;;5074015;28;20028;-63
2023/12/11 00:03:09;;;;;;;28.33;18.40;;;128.50;2252.80;;;;;;5081829;28;20055;-63
2023/12/11 00:05:38;;;;;;;24.35;17.00;;;128.50;2252.80;;;;;;5073522;28;20036;-63
2023/12/11 00:08:04;;;;;;;20.63;11.57;;;128.40;2252.80;;;;;;5074401;28;20028;-64
2023/12/11 00:10:30;;;;;;;20.17;8.98;;;128.20;2252.80;;;;;;5071549;28;20032;-63
2023/12/11 00:12:56;;;;;;;19.88;9.75;;;128.00;2252.80;;;;;;5071356;28;20024;-64
2023/12/11 00:15:22;;;;;;;23.17;9.27;;;103.20;2227.20;;;;;;5071269;28;20099;-64
2023/12/11 00:17:47;;;;;;;16.00;10.35;;;103.20;2227.20;;;;;;5085010;28;20912;-64
2023/12/11 00:20:13;;;;;;;18.15;9.15;;;103.10;2227.20;;;;;;5084536;28;20063;-64
2023/12/11 00:22:39;;;;;;;13.00;6.80;;;103.00;2227.20;;;;;;5077818;28;20399;-64
2023/12/11 00:25:05;;;;;;;7.30;4.93;;;102.90;2227.20;;;;;;5078050;28;20078;-64
2023/12/11 00:27:31;;;;;;;11.77;6.10;;;102.90;2227.20;;;;;;5077311;28;20020;-63
2023/12/11 00:29:59;;;;;;;12.00;5.68;;;103.00;2227.20;;;;;;5080464;28;20035;-63
2023/12/11 00:32:24;;;;;;;13.82;6.45;;;102.90;2227.20;;;;;;5084187;28;20115;-63
2023/12/11 00:34:50;;;;;;;14.52;5.90;;;102.90;2227.20;;;;;;5070850;28;20131;-63
2023/12/11 00:37:17;;;;;;;11.73;7.60;;;102.90;2227.20;;;;;;5074595;28;20035;-65
2023/12/11 00:39:43;;;;;;;14.43;7.20;;;102.80;2227.20;;;;;;5080356;28;20417;-63
2023/12/11 00:42:08;;;;;;;13.48;7.30;;;102.80;2227.20;;;;;;5067419;28;20028;-64
2023/12/11 00:44:37;;;;;;;12.18;6.40;;;102.70;2227.20;;;;;;5064149;28;20036;-63
2023/12/11 00:47:04;;;;;;;9.52;5.32;;;102.80;2227.20;;;;;;5088221;28;20024;-63
2023/12/11 00:49:30;;;;;;;10.15;6.03;;;102.90;2227.20;;;;;;5079315;28;20087;-64
2023/12/11 00:51:56;;;;;;;23.50;9.95;;;103.10;2227.20;;;;;;5088724;28;20020;-63
2023/12/11 00:54:22;;;;;;;23.63;13.13;;;103.20;2227.20;;;;;;5079616;28;20106;-63
2023/12/11 00:56:48;;;;;;;16.88;7.30;;;103.30;2227.20;;;;;;5084003;28;20395;-64
2023/12/11 00:59:13;;;;;;;17.58;7.65;;;103.30;2227.20;;;;;;5069934;28;20067;-64
2023/12/11 01:01:39;;;;;;;22.60;19.02;;;103.30;2227.20;;;;;;5083619;28;20352;-65
2023/12/11 01:04:06;;;;;;;15.70;6.40;;;103.30;2227.20;;;;;;5069854;28;20037;-64
2023/12/11 01:06:31;;;;;;;39.95;35.72;;;103.30;2227.20;;;;;;5070128;28;20024;-64
2023/12/11 01:08:57;;;;;;;16.95;9.25;;;128.00;2252.80;;;;;;5081417;28;20081;-65
2023/12/11 01:11:23;;;;;;;22.23;14.55;;;103.30;2227.20;;;;;;5085523;28;20095;-64
2023/12/11 01:13:49;;;;;;;18.23;12.18;;;103.30;2227.20;;;;;;5072338;28;20021;-65
2023/12/11 01:16:14;;;;;;;15.45;6.97;;;103.30;2227.20;;;;;;5073747;28;20031;-64
2023/12/11 01:18:40;;;;;;;23.00;12.30;;;103.30;2227.20;;;;;;5090120;28;20024;-64
2023/12/11 01:21:06;;;;;;;15.85;7.43;;;103.30;2227.20;;;;;;5071828;28;20043;-64
2023/12/11 01:23:32;;;;;;;13.63;5.85;;;103.30;2227.20;;;;;;5070174;28;20117;-64
2023/12/11 01:25:57;;;;;;;10.18;6.05;;;103.20;2227.20;;;;;;5069749;28;20021;-65
2023/12/11 01:28:24;;;;;;;11.00;5.40;;;103.20;2227.20;;;;;;5081267;28;20106;-64
2023/12/11 01:30:49;;;;;;;11.77;5.78;;;103.20;2227.20;;;;;;5084262;28;20493;-66
2023/12/11 01:33:15;;;;;;;18.85;8.55;;;103.20;2227.20;;;;;;5069788;28;20111;-63
2023/12/11 01:35:41;;;;;;;31.50;18.58;;;103.20;2227.20;;;;;;5069472;28;20470;-64
2023/12/11 01:38:07;;;;;;;11.27;6.65;;;103.30;2227.20;;;;;;5081219;28;20036;-63
2023/12/11 01:40:32;;;;;;;13.98;6.13;;;103.30;2227.20;;;;;;5071550;28;20024;-64
2023/12/11 01:43:15;;;;;;;13.90;10.52;;;103.30;2227.20;;;;;;5081299;28;20057;-63
2023/12/11 01:45:41;;;;;;;13.45;8.15;;;103.30;2227.20;;;;;;5068877;28;20389;-64
2023/12/11 01:48:11;;;;;;;27.15;18.25;;;103.20;2227.20;;;;;;5080205;28;20028;-64
2023/12/11 01:50:38;;;;;;;30.70;22.25;;;103.10;2227.20;;;;;;5089427;28;20023;-63
2023/12/11 01:53:05;;;;;;;51.47;36.97;;;103.10;2227.20;;;;;;5074883;28;20052;-64
2023/12/11 01:55:33;;;;;;;39.92;25.70;;;103.10;2227.20;;;;;;5069652;28;20524;-64
2023/12/11 01:58:01;;;;;;;26.85;16.05;;;103.10;2227.20;;;;;;5084640;28;20560;-63
2023/12/11 02:00:27;;;;;;;24.98;14.90;;;103.10;2227.20;;;;;;5089836;28;20472;-64
2023/12/11 02:02:53;;;;;;;24.20;13.95;;;103.10;2227.20;;;;;;5075427;28;20048;-64
2023/12/11 02:05:19;;;;;;;21.20;12.48;;;103.10;2227.20;;;;;;5089757;28;20036;-64
2023/12/11 02:07:45;;;;;;;20.17;13.88;;;103.20;2227.20;;;;;;5073494;28;20028;-64
2023/12/11 02:10:11;;;;;;;23.17;15.45;;;103.10;2227.20;;;;;;5069403;28;20036;-62
2023/12/11 02:12:38;;;;;;;26.17;18.15;;;103.10;2227.20;;;;;;5069560;28;20055;-64
2023/12/11 02:15:04;;;;;;;21.58;13.13;;;103.10;2227.20;;;;;;5076360;28;20118;-64
2023/12/11 02:17:30;;;;;;;16.90;6.15;;;103.10;2227.20;;;;;;5056487;28;20025;-63
2023/12/11 02:19:56;;;;;;;14.85;7.22;;;103.00;2227.20;;;;;;5069286;28;20028;-63
2023/12/11 02:22:22;;;;;;;8.68;4.60;;;102.90;2227.20;;;;;;5071311;28;20398;-63
2023/12/11 02:24:49;;;;;;;11.70;5.05;;;102.90;2227.20;;;;;;5080677;28;20371;-64
2023/12/11 02:27:16;;;;;;;12.80;6.85;;;102.90;2227.20;;;;;;5084866;28;20058;-63
2023/12/11 02:29:41;;;;;;;10.10;5.40;;;102.90;2227.20;;;;;;5089462;28;20106;-63
2023/12/11 02:32:07;;;;;;;10.13;5.85;;;102.90;2227.20;;;;;;5073455;28;20179;-64
2023/12/11 02:34:33;;;;;;;12.00;7.30;;;102.90;2227.20;;;;;;5077514;28;20461;-64
2023/12/11 02:36:59;;;;;;;25.42;14.13;;;102.90;2227.20;;;;;;5089608;28;20707;-63
2023/12/11 02:39:24;;;;;;;30.45;16.13;;;102.80;2227.20;;;;;;5080309;28;20498;-64
2023/12/11 02:41:50;;;;;;;33.63;19.15;;;102.80;2227.20;;;;;;5084574;28;20038;-63
2023/12/11 02:44:16;;;;;;;23.98;15.63;;;102.70;2227.20;;;;;;5080102;28;20033;-65
2023/12/11 02:46:42;;;;;;;29.15;16.33;;;102.70;2227.20;;;;;;5084746;28;20832;-63
2023/12/11 02:49:07;;;;;;;26.45;12.45;;;102.60;2227.20;;;;;;5065280;28;20052;-63
2023/12/11 02:51:33;;;;;;;23.90;11.52;;;102.60;2227.20;;;;;;5051059;28;20025;-64
2023/12/11 02:53:59;;;;;;;19.48;9.55;;;102.60;2227.20;;;;;;5068913;28;20065;-64
2023/12/11 02:56:25;;;;;;;16.73;7.18;;;102.50;2227.20;;;;;;5068668;28;20105;-64
2023/12/11 02:58:50;;;;;;;12.57;4.80;;;102.50;2227.20;;;;;;5078158;28;20024;-64
2023/12/11 03:01:16;;;;;;;12.73;4.72;;;102.50;2227.20;;;;;;5074700;28;20107;-64
2023/12/11 03:03:42;;;;;;;12.25;4.45;;;102.50;2227.20;;;;;;5092715;28;20066;-64
2023/12/11 03:06:18;;;;;;;11.95;9.20;;;102.50;2227.20;;;;;;5092825;28;20028;-64
2023/12/11 03:08:44;;;;;;;16.50;7.70;;;102.50;2227.20;;;;;;5082675;28;20017;-64
2023/12/11 03:11:10;;;;;;;14.05;6.57;;;102.50;2227.20;;;;;;5089448;28;20077;-64
2023/12/11 03:13:36;;;;;;;16.92;7.88;;;102.50;2227.20;;;;;;5092825;28;20030;-63
2023/12/11 03:16:01;;;;;;;15.02;7.07;;;102.60;2227.20;;;;;;5089098;28;20483;-64
2023/12/11 03:18:27;;;;;;;12.70;5.70;;;102.60;2227.20;;;;;;5082467;28;20385;-64
2023/12/11 03:20:53;;;;;;;24.20;13.73;;;102.60;2227.20;;;;;;5092174;28;20020;-65
2023/12/11 03:23:19;;;;;;;32.50;13.68;;;102.50;2227.20;;;;;;5082163;28;20035;-63
2023/12/11 03:25:44;;;;;;;19.98;7.45;;;102.40;2227.20;;;;;;5070565;28;20031;-64
2023/12/11 03:28:10;;;;;;;17.88;5.78;;;77.70;2227.20;;;;;;5069804;28;20044;-65
2023/12/11 03:30:36;;;;;;;12.18;4.63;;;102.40;2227.20;;;;;;5074750;28;20052;-64
2023/12/11 03:33:01;;;;;;;7.78;4.60;;;77.70;2227.20;;;;;;5092390;28;20521;-64
2023/12/11 03:35:27;;;;;;;13.65;4.68;;;77.70;2227.20;;;;;;5078763;28;20482;-64
2023/12/11 03:37:53;;;;;;;9.45;4.20;;;77.70;2227.20;;;;;;5082818;28;20478;-64
2023/12/11 03:40:19;;;;;;;8.25;4.70;;;77.70;2227.20;;;;;;5085408;28;20025;-63
2023/12/11 03:42:44;;;;;;;8.05;5.72;;;77.70;2227.20;;;;;;5071887;28;20462;-64
2023/12/11 03:45:10;;;;;;;9.90;5.82;;;77.70;2227.20;;;;;;5074438;28;20032;-67
2023/12/11 03:47:36;;;;;;;12.48;5.82;;;77.70;2227.20;;;;;;5092168;28;20020;-64
2023/12/11 03:50:02;;;;;;;9.75;5.20;;;77.70;2227.20;;;;;;5078191;28;21454;-65
2023/12/11 03:52:28;;;;;;;10.38;4.05;;;77.70;2227.20;;;;;;5082706;28;20445;-66
2023/12/11 03:54:53;;;;;;;9.25;4.32;;;77.60;2227.20;;;;;;5087843;28;20162;-65
2023/12/11 03:57:19;;;;;;;11.68;4.65;;;77.60;2227.20;;;;;;5092004;28;20023;-64
2023/12/11 03:59:45;;;;;;;9.48;3.97;;;77.60;2227.20;;;;;;5077608;28;20684;-64
2023/12/11 04:02:11;;;;;;;7.85;4.78;;;77.60;2227.20;;;;;;5068060;28;20079;-64
2023/12/11 04:04:36;;;;;;;33.17;15.88;;;77.70;2227.20;;;;;;5071007;28;20059;-63
2023/12/11 04:07:02;;;;;;;83.68;41.58;;;77.70;2227.20;;;;;;5081036;28;20500;-63
2023/12/11 04:09:28;;;;;;;51.15;25.77;;;77.70;2227.20;;;;;;5077567;28;20117;-63
2023/12/11 04:11:54;;;;;;;88.43;61.40;;;77.70;2227.20;;;;;;5091322;28;20025;-63
2023/12/11 04:14:20;;;;;;;57.42;34.13;;;77.60;2227.20;;;;;;5077304;28;20182;-63
2023/12/11 04:16:46;;;;;;;58.63;30.73;;;77.60;2227.20;;;;;;5082010;28;20047;-62
2023/12/11 04:19:11;;;;;;;39.67;18.05;;;77.60;2227.20;;;;;;5073869;28;20029;-63
2023/12/11 04:21:37;;;;;;;29.23;15.98;;;77.60;2227.20;;;;;;5081920;28;20024;-63
2023/12/11 04:24:03;;;;;;;35.63;18.02;;;77.60;2227.20;;;;;;5073843;28;20170;-63
2023/12/11 04:26:29;;;;;;;26.60;12.95;;;77.50;2227.20;;;;;;5091673;28;20471;-65
2023/12/11 04:28:55;;;;;;;20.70;9.43;;;77.50;2227.20;;;;;;5087797;28;20051;-64
2023/12/11 04:31:23;;;;;;;22.48;11.15;;;77.50;2227.20;;;;;;5072157;28;20051;-63
2023/12/11 04:33:49;;;;;;;15.70;10.18;;;77.50;2227.20;;;;;;5070835;28;20043;-65
2023/12/11 04:36:15;;;;;;;16.88;9.10;;;77.70;2227.20;;;;;;5070923;28;20023;-63
2023/12/11 04:38:41;;;;;;;27.88;14.90;;;77.60;2227.20;;;;;;5061284;28;20032;-65
2023/12/11 04:41:07;;;;;;;50.03;25.98;;;77.60;2227.20;;;;;;5071609;28;20077;-64
2023/12/11 04:43:33;;;;;;;32.85;19.17;;;77.50;2227.20;;;;;;5076773;28;20043;-64
2023/12/11 04:46:01;;;;;;;66.20;45.00;;;77.40;2227.20;;;;;;5080327;28;20052;-63
2023/12/11 04:48:27;;;;;;;38.20;24.38;;;77.40;2227.20;;;;;;5088151;28;20022;-64
2023/12/11 04:50:53;;;;;;;59.15;36.05;;;77.40;2227.20;;;;;;5079697;28;20020;-64
2023/12/11 04:53:19;;;;;;;73.75;43.60;;;77.40;2227.20;;;;;;5084141;28;20063;-63
2023/12/11 04:55:45;;;;;;;73.80;42.78;;;77.30;2227.20;;;;;;5081281;28;20024;-64
2023/12/11 04:58:11;;;;;;;66.65;40.88;;;77.20;2227.20;;;;;;5086613;28;20024;-63
2023/12/11 05:00:36;;;;;;;141.02;80.30;;;77.20;2227.20;;;;;;5070394;28;20111;-64
2023/12/11 05:03:02;;;;;;;164.80;98.35;;;77.10;2227.20;;;;;;5073241;28;20043;-64
2023/12/11 05:05:28;;;;;;;151.63;96.13;;;76.90;2227.20;;;;;;5079829;28;20037;-64
2023/12/11 05:07:54;;;;;;;147.65;98.88;;;77.00;2227.20;;;;;;5083905;28;20026;-64
2023/12/11 05:10:20;;;;;;;135.30;88.80;;;77.10;2227.20;;;;;;5070189;28;20462;-63
2023/12/11 05:12:46;;;;;;;140.70;86.28;;;77.00;2227.20;;;;;;5087251;28;20073;-64
2023/12/11 05:15:11;;;;;;;100.97;64.55;;;77.00;2227.20;;;;;;5078240;28;20060;-63
2023/12/11 05:17:37;;;;;;;100.07;61.50;;;77.10;2227.20;;;;;;5083416;28;20028;-63
2023/12/11 05:20:03;;;;;;;364.77;211.05;;;77.10;2227.20;;;;;;5069546;28;20021;-64
2023/12/11 05:22:29;;;;;;;316.60;183.63;;;77.20;2227.20;;;;;;5087428;28;20024;-63
2023/12/11 05:24:55;;;;;;;126.50;78.30;;;77.00;2227.20;;;;;;5089375;28;20122;-63
2023/12/11 05:27:20;;;;;;;122.45;69.18;;;77.10;2227.20;;;;;;5076619;28;20028;-62
2023/12/11 05:29:46;;;;;;;137.05;81.18;;;77.10;2227.20;;;;;;5080376;28;20032;-64
2023/12/11 05:32:14;;;;;;;113.13;68.05;;;77.00;2227.20;;;;;;5082696;28;20036;-63
2023/12/11 05:34:39;;;;;;;78.97;47.95;;;77.00;2227.20;;;;;;5076643;28;20040;-63
2023/12/11 05:37:05;;;;;;;104.30;63.83;;;77.00;2227.20;;;;;;5085486;28;20016;-64
2023/12/11 05:39:31;;;;;;;101.85;60.70;;;77.00;2227.20;;;;;;5069592;28;20030;-64
2023/12/11 05:41:57;;;;;;;76.78;47.85;;;76.90;2227.20;;;;;;5073218;28;20034;-64
2023/12/11 05:44:22;;;;;;;241.48;132.27;;;76.80;2227.20;;;;;;5080562;28;20071;-65
2023/12/11 05:46:48;;;;;;;207.77;120.45;;;76.90;2227.20;;;;;;5089546;28;20112;-65
2023/12/11 05:49:14;;;;;;;170.82;96.15;;;77.00;2227.20;;;;;;5073927;28;20035;-65
2023/12/11 05:51:39;;;;;;;138.45;81.85;;;77.00;2227.20;;;;;;5072685;28;20067;-64
2023/12/11 05:54:05;;;;;;;148.07;95.93;;;77.00;2227.20;;;;;;5072628;28;20055;-63
2023/12/11 05:56:31;;;;;;;67.30;41.72;;;77.10;2227.20;;;;;;5069321;28;20033;-64
2023/12/11 05:58:57;;;;;;;68.95;43.38;;;77.20;2227.20;;;;;;5089005;28;20028;-63
2023/12/11 06:01:24;;;;;;;70.82;44.88;;;77.20;2227.20;;;;;;5075735;28;20020;-63
2023/12/11 06:03:50;;;;;;;61.38;36.05;;;77.30;2227.20;;;;;;5082273;28;20063;-64
2023/12/11 06:06:16;;;;;;;128.88;71.63;;;77.20;2227.20;;;;;;5069117;28;20020;-63
2023/12/11 06:08:43;;;;;;;39.22;26.20;;;77.00;2227.20;;;;;;5089227;28;20028;-64
2023/12/11 06:11:11;;;;;;;78.82;45.97;;;77.00;2227.20;;;;;;5088881;28;20482;-63
2023/12/11 06:13:37;;;;;;;48.05;25.90;;;77.00;2227.20;;;;;;5078036;28;20033;-63
2023/12/11 06:16:04;;;;;;;33.45;20.25;;;77.00;2227.20;;;;;;5068934;28;20158;-64
2023/12/11 06:18:30;;;;;;;43.30;27.40;;;76.80;2227.20;;;;;;5077930;28;20539;-64
2023/12/11 06:20:58;;;;;;;71.57;40.72;;;76.90;2227.20;;;;;;5074929;28;20025;-63
2023/12/11 06:23:24;;;;;;;52.58;32.83;;;76.90;2227.20;;;;;;5077890;28;20165;-64
2023/12/11 06:25:51;;;;;;;46.53;28.73;;;76.90;2227.20;;;;;;5055219;28;20021;-64
2023/12/11 06:28:17;;;;;;;51.75;32.65;;;76.90;2227.20;;;;;;5089069;28;20070;-65
2023/12/11 06:30:43;;;;;;;26.13;14.88;;;77.10;2227.20;;;;;;5088913;28;20028;-63
2023/12/11 06:33:09;;;;;;;20.48;14.40;;;77.10;2227.20;;;;;;5078450;28;20115;-64
2023/12/11 06:35:35;;;;;;;23.60;13.38;;;77.10;2227.20;;;;;;5082070;28;20136;-57
2023/12/11 06:38:00;;;;;;;30.98;18.35;;;77.10;2227.20;;;;;;5080286;28;20033;-62
2023/12/11 06:40:26;;;;;;;95.30;55.80;;;77.00;2227.20;;;;;;5086807;28;20028;-64
2023/12/11 06:42:52;;;;;;;266.25;144.50;;;77.00;2227.20;;;;;;5082427;28;20024;-64
2023/12/11 06:45:18;;;;;;;143.98;85.13;;;77.10;2227.20;;;;;;5082884;28;20102;-62
2023/12/11 06:47:43;;;;;;;117.70;77.47;;;77.10;2227.20;;;;;;5078767;28;20488;-66
2023/12/11 06:50:09;;;;;;;108.35;69.90;;;77.20;2227.20;;;;;;5089585;28;20031;-65
2023/12/11 06:52:35;;;;;;;86.95;52.05;;;77.30;2227.20;;;;;;5090647;28;20059;-65
2023/12/11 06:55:02;;;;;;;74.57;43.28;;;77.40;2227.20;;;;;;5089081;28;20024;-64
2023/12/11 06:57:28;;;;;;;103.78;64.00;;;77.40;2227.20;;;;;;5078486;28;20047;-64
2023/12/11 06:59:54;;;;;;;116.75;70.40;;;77.30;2227.20;;;;;;5085357;28;20440;-65
2023/12/11 07:02:19;;;;;;;69.55;42.60;;;77.50;2227.20;;;;;;5083233;28;20032;-64
2023/12/11 07:04:45;;;;;;;47.58;30.52;;;77.30;2227.20;;;;;;5081812;28;20041;-64
2023/12/11 07:07:11;;;;;;;172.20;109.40;;;77.30;2227.20;;;;;;5084656;28;20031;-64
2023/12/11 07:09:40;;;;;;;202.70;136.65;;;77.30;2227.20;;;;;;5083553;28;20363;-67
2023/12/11 07:12:06;;;;;;;138.15;93.93;;;77.40;2227.20;;;;;;5080115;28;20020;-66
2023/12/11 07:14:32;;;;;;;117.63;76.95;;;77.50;2227.20;;;;;;5080827;28;20024;-65
2023/12/11 07:16:57;;;;;;;173.80;127.50;;;77.60;2227.20;;;;;;5086090;28;20532;-69
2023/12/11 07:19:23;;;;;;;80.32;56.45;;;77.60;2227.20;;;;;;5079906;28;20466;-69
2023/12/11 07:21:49;;;;;;;50.67;36.72;;;77.70;2227.20;;;;;;5076778;28;20393;-65
2023/12/11 07:24:15;;;;;;;346.60;182.45;;;77.50;2227.20;;;;;;5082077;28;20057;-65
2023/12/11 07:26:41;;;;;;;179.18;102.93;;;77.50;2227.20;;;;;;5077768;28;20056;-70
2023/12/11 07:29:07;;;;;;;216.10;112.20;;;77.50;2227.20;;;;;;5085680;28;20028;-64
2023/12/11 07:31:33;;;;;;;307.05;176.20;;;77.50;2227.20;;;;;;5082218;28;20523;-66
2023/12/11 07:33:59;;;;;;;265.33;153.57;;;77.40;2227.20;;;;;;5076401;28;20056;-67
2023/12/11 07:36:25;;;;;;;209.23;132.57;;;77.60;2227.20;;;;;;5063067;28;20022;-65
2023/12/11 07:38:51;;;;;;;214.15;132.63;;;77.70;2227.20;;;;;;5079143;28;20110;-64
2023/12/11 07:41:20;;;;;;;229.18;150.52;;;102.40;2227.20;;;;;;5075150;28;20033;-65
2023/12/11 07:43:47;;;;;;;197.43;129.23;;;77.70;2227.20;;;;;;5079378;28;20061;-64
2023/12/11 07:46:19;;;;;;;253.23;168.60;;;102.50;2227.20;;;;;;5075447;28;20043;-64
2023/12/11 07:48:46;;;;;;;260.33;168.30;;;77.70;2227.20;;;;;;5078914;28;20047;-71
2023/12/11 07:51:24;;;;;;;274.75;177.35;;;102.60;2227.20;;;;;;5075702;28;20033;-65
2023/12/11 07:53:50;;;;;;;276.65;185.85;;;102.70;2227.20;;;;;;5083920;28;20478;-65
2023/12/11 07:56:23;;;;;;;237.68;162.95;;;102.60;2227.20;;;;;;5065443;28;20019;-65
2023/12/11 07:58:50;;;;;;;200.40;139.75;;;102.40;2227.20;;;;;;5077370;28;20029;-69
2023/12/11 08:01:15;;;;;;;186.23;130.60;;;102.40;2227.20;;;;;;5083882;28;20027;-66
2023/12/11 08:03:41;;;;;;;170.75;116.68;;;102.70;2227.20;;;;;;5085156;28;20060;-65
2023/12/11 08:06:10;;;;;;;179.55;118.32;;;102.60;2227.20;;;;;;5082366;28;20110;-64
2023/12/11 08:08:45;;;;;;;187.90;129.43;;;102.70;2227.20;;;;;;5080512;28;20622;-65
2023/12/11 08:11:29;;;;;;;177.00;123.80;;;102.80;2227.20;;;;;;5072181;28;20020;-64
2023/12/11 08:13:55;;;;;;;;;;;103.10;2227.20;;;;;;5078042;28;20042;-65
2023/12/11 08:16:23;;;;;;;159.50;105.72;;;103.20;2227.20;;;;;;5083837;28;20370;-65
2023/12/11 08:18:49;;;;;;;138.10;93.57;;;128.80;2252.80;;;;;;5070953;28;20028;-65
2023/12/11 08:21:17;;;;;;;144.07;96.70;;;179.80;2252.80;;;;;;5071160;28;20016;-65
2023/12/11 08:23:44;;;;;;;163.65;107.22;;;204.80;2252.80;;;;;;5075379;28;20070;-65
2023/12/11 08:26:17;;;;;;;146.23;102.93;;;205.10;2252.80;;;;;;5079833;28;20103;-66
2023/12/11 08:28:43;;;;;;;145.43;108.03;;;180.10;2252.80;;;;;;5084040;28;20420;-65
2023/12/11 08:31:09;;;;;;;166.45;118.85;;;179.50;2252.80;;;;;;5071305;28;20025;-64
2023/12/11 08:33:35;;;;;;;140.98;96.22;;;179.70;2252.80;;;;;;5070441;28;20442;-65
2023/12/11 08:36:00;;;;;;;150.55;93.90;;;179.70;2252.80;;;;;;5070569;28;20119;-67
2023/12/11 08:38:27;;;;;;;117.38;80.35;;;179.30;2252.80;;;;;;5070505;28;20025;-65
2023/12/11 08:40:53;;;;;;;136.80;86.68;;;154.30;2252.80;;;;;;5070611;28;20021;-65
2023/12/11 08:43:19;;;;;;;181.68;112.90;;;154.40;2252.80;;;;;;5069627;28;20036;-69
2023/12/11 08:45:45;;;;;;;159.38;118.93;;;154.50;2252.80;;;;;;5064915;28;20074;-64
2023/12/11 08:48:11;;;;;;;184.18;120.95;;;154.50;2252.80;;;;;;5073460;28;20115;-69
2023/12/11 08:50:37;;;;;;;166.35;121.30;;;154.50;2252.80;;;;;;5081686;28;20119;-64
2023/12/11 08:53:05;;;;;;;166.68;125.97;;;154.50;2252.80;;;;;;5070656;28;20050;-68
2023/12/11 08:55:31;;;;;;;183.93;134.90;;;154.30;2252.80;;;;;;5083808;28;20035;-64
2023/12/11 08:57:57;;;;;;;148.23;107.78;;;154.20;2252.80;;;;;;5090591;28;20416;-63
2023/12/11 09:00:23;;;;;;;206.82;137.05;;;154.20;2252.80;;;;;;5085045;28;20027;-65
2023/12/11 09:02:51;;;;;;;218.85;147.65;;;154.20;2252.80;;;;;;5070452;28;20508;-65
2023/12/11 09:05:17;;;;;;;218.02;151.18;;;154.30;2252.80;;;;;;5070866;28;20067;-66
2023/12/11 09:07:43;;;;;;;196.27;135.32;;;154.50;2252.80;;;;;;5071076;28;20104;-65
2023/12/11 09:10:09;;;;;;;200.45;132.48;;;179.40;2252.80;;;;;;5072270;28;20104;-65
2023/12/11 09:12:38;;;;;;;141.98;101.10;;;179.90;2252.80;;;;;;5070787;28;20013;-64
2023/12/11 09:15:05;;;;;;;200.95;136.50;;;205.70;2252.80;;;;;;5077825;28;20031;-66
2023/12/11 09:17:31;;;;;;;182.80;125.90;;;230.50;2252.80;;;;;;5089736;28;20024;-65
2023/12/11 09:19:57;;;;;;;172.63;122.68;;;230.50;2252.80;;;;;;5090239;28;20077;-65
2023/12/11 09:22:24;;;;;;;144.80;102.57;;;230.50;2252.80;;;;;;5069379;28;20025;-66
2023/12/11 09:24:50;;;;;;;166.75;124.15;;;230.50;2252.80;;;;;;5080718;28;20040;-66
2023/12/11 09:27:15;;;;;;;152.75;108.57;;;205.70;2252.80;;;;;;5089987;28;20534;-66
2023/12/11 09:29:41;;;;;;;128.25;86.93;;;205.50;2252.80;;;;;;5089585;28;20082;-67
2023/12/11 09:32:07;;;;;;;114.95;82.55;;;205.20;2252.80;;;;;;5089650;28;20028;-68
2023/12/11 09:34:33;;;;;;;122.90;86.97;;;205.00;2252.80;;;;;;5089864;28;20111;-65
2023/12/11 09:36:59;;;;;;;120.57;84.97;;;205.00;2252.80;;;;;;5076544;28;20035;-65
2023/12/11 09:39:25;;;;;;;138.35;114.30;;;205.30;2252.80;;;;;;5077043;28;20029;-65
2023/12/11 09:41:52;;;;;;;148.75;105.68;;;205.50;2252.80;;;;;;5071175;28;20027;-66
2023/12/11 09:44:21;;;;;;;120.40;86.50;;;205.50;2252.80;;;;;;5070376;28;20075;-68
2023/12/11 09:46:58;;;;;;;120.75;85.93;;;205.70;2252.80;;;;;;5071669;28;20028;-68
2023/12/11 09:49:24;;;;;;;124.15;92.78;;;230.40;2252.80;;;;;;5072334;28;20064;-65
2023/12/11 09:51:52;;;;;;;142.55;104.85;;;230.50;2252.80;;;;;;5078003;28;20067;-67
2023/12/11 09:54:17;;;;;;;122.65;93.15;;;230.60;2252.80;;;;;;5082550;28;20032;-67
2023/12/11 09:56:44;;;;;;;127.72;92.43;;;230.80;2252.80;;;;;;5089519;28;20165;-66
2023/12/11 09:59:10;;;;;;;130.90;94.07;;;230.70;2252.80;;;;;;5079910;28;20500;-66
2023/12/11 10:01:36;;;;;;;185.68;136.60;;;230.50;2252.80;;;;;;5067697;28;20578;-66
2023/12/11 10:04:02;;;;;;;98.38;75.57;;;230.60;2252.80;;;;;;5086035;28;20071;-65
2023/12/11 10:06:28;;;;;;;132.50;97.53;;;230.80;2252.80;;;;;;5074942;28;20052;-68
2023/12/11 10:08:55;;;;;;;111.60;84.15;;;230.80;2252.80;;;;;;5081711;28;20102;-66
2023/12/11 10:11:26;;;;;;;113.40;77.07;;;230.90;2252.80;;;;;;5081979;28;20387;-67
2023/12/11 10:13:52;;;;;;;113.60;81.22;;;230.90;2252.80;;;;;;5076387;28;20060;-64
2023/12/11 10:16:28;;;;;;;107.03;74.93;;;230.70;2252.80;;;;;;5074450;28;20510;-68
2023/12/11 10:18:55;;;;;;;111.82;76.97;;;205.70;2252.80;;;;;;5083223;28;20046;-66
2023/12/11 10:21:24;;;;;;;160.98;112.50;;;205.50;2252.80;;;;;;5078539;28;20020;-66
2023/12/11 10:24:06;;;;;;;163.63;121.32;;;205.40;2252.80;;;;;;5084227;28;20154;-64
2023/12/11 10:26:35;;;;;;;141.07;102.03;;;205.30;2252.80;;;;;;5087562;28;20028;-66
2023/12/11 10:29:17;;;;;;;189.10;134.50;;;205.10;2252.80;;;;;;5088548;28;20103;-63
2023/12/11 10:31:43;;;;;;;229.20;157.00;;;205.00;2252.80;;;;;;5073360;28;20055;-66
2023/12/11 10:34:09;;;;;;;229.40;168.25;;;204.90;2252.80;;;;;;5069741;28;20036;-65
2023/12/11 10:36:35;;;;;;;238.23;175.10;;;205.10;2252.80;;;;;;5083326;28;20035;-65
2023/12/11 10:39:11;;;;;;;247.32;181.73;;;205.10;2252.80;;;;;;5081506;28;20428;-65
2023/12/11 10:41:37;;;;;;;212.02;154.32;;;205.10;2252.80;;;;;;5068566;28;20142;-66
2023/12/11 10:44:03;;;;;;;187.85;141.38;;;205.10;2252.80;;;;;;5068817;28;20512;-66
2023/12/11 10:46:29;;;;;;;199.48;143.70;;;205.00;2252.80;;;;;;5084493;28;20020;-66
2023/12/11 10:48:56;;;;;;;190.52;140.57;;;205.10;2252.80;;;;;;5079594;28;20047;-66
2023/12/11 10:51:22;;;;;;;205.63;151.02;;;205.10;2252.80;;;;;;5081940;28;20062;-67
2023/12/11 10:53:48;;;;;;;199.27;136.73;;;205.10;2252.80;;;;;;5081902;28;20056;-66
2023/12/11 10:56:14;;;;;;;215.82;156.43;;;205.20;2252.80;;;;;;5068545;28;20056;-66
2023/12/11 10:58:40;;;;;;;220.35;162.35;;;205.20;2252.80;;;;;;5085192;28;20039;-67
2023/12/11 11:01:07;;;;;;;251.88;178.52;;;205.30;2252.80;;;;;;5078169;28;20031;-67
2023/12/11 11:03:33;;;;;;;248.60;183.43;;;205.30;2252.80;;;;;;5069083;28;20155;-66
2023/12/11 11:06:00;;;;;;;260.50;189.30;;;205.20;2252.80;;;;;;5080609;28;20024;-68
2023/12/11 11:08:48;;;;;;;245.13;182.13;;;205.40;2252.80;;;;;;5067825;28;20044;-66
2023/12/11 11:11:24;;;;;;;223.25;161.60;;;205.60;2252.80;;;;;;5067372;28;20028;-66
2023/12/11 11:14:08;;;;;;;225.73;157.93;;;205.60;2252.80;;;;;;5078157;28;20359;-67
2023/12/11 11:16:56;;;;;;;225.40;161.18;;;205.70;2252.80;;;;;;5069506;28;20046;-66
2023/12/11 11:19:24;;;;;;;219.85;154.27;;;205.70;2252.80;;;;;;5069111;28;20377;-68
2023/12/11 11:22:06;;;;;;;223.82;160.45;;;230.50;2252.80;;;;;;5080777;28;20035;-67
2023/12/11 11:24:34;;;;;;;222.05;159.13;;;230.50;2252.80;;;;;;5085152;28;20483;-66
2023/12/11 11:27:04;;;;;;;226.05;158.00;;;230.50;2252.80;;;;;;5082512;28;20397;-67
2023/12/11 11:29:43;;;;;;;225.13;163.88;;;230.80;2252.80;;;;;;5092106;28;20044;-67
2023/12/11 11:32:10;;;;;;;233.30;173.45;;;230.80;2252.80;;;;;;5078272;28;20036;-67
2023/12/11 11:34:45;;;;;;;209.52;156.13;;;230.70;2252.80;;;;;;5091548;28;20028;-67
2023/12/11 11:37:37;;;;;;;221.77;155.38;;;230.80;2252.80;;;;;;5085154;28;20089;-65
2023/12/11 11:40:05;;;;;;;209.20;149.98;;;230.90;2252.80;;;;;;5066833;28;20029;-66
2023/12/11 11:42:35;;;;;;;249.15;184.20;;;231.10;2252.80;;;;;;5079533;28;20405;-67
2023/12/11 11:45:03;;;;;;;240.10;175.55;;;231.10;2252.80;;;;;;5072026;28;20036;-65
2023/12/11 11:47:29;;;;;;;227.32;171.02;;;231.20;2252.80;;;;;;5085364;28;20017;-66
2023/12/11 11:50:12;;;;;;;245.88;188.73;;;256.00;2252.80;;;;;;5071414;28;20043;-65
2023/12/11 11:52:41;;;;;;;249.05;180.95;;;256.20;2252.80;;;;;;5075898;28;20504;-68
2023/12/11 11:55:15;;;;;;;236.57;185.43;;;256.20;2252.80;;;;;;5080862;28;20036;-65
2023/12/11 11:57:41;;;;;;;256.48;187.23;;;256.20;2252.80;;;;;;5072870;28;20032;-66